Trafford, Alabama
Current Conditions -  °F | °C
As of 11:53 PM on Friday 19 Dec 2014 (Local Time) from KBHM Reporting Station
Light Rain Light Rain  
Wind Chill:   Ceiling: 7500
Heat Index:   Visibility: 7mi
Dew Point:   Wind: 7mph
Humidity: 93%   Direction: 320°NW
Pressure: 30.18"   Gusts: NA
Location:  33.82°N, 86.74°W
Report Text: KBHM 200553Z 32006KT 7SM -RA SCT065 BKN075 OVC090 05/04 A3018 RMK AO2 SLP220 P0003 60013 T00500039 10067 20050 400890000 55007
Loading
Personal Weather Stations






























Interactive Weather Map New forecast layout! Learn more

10-Day Weather Forecast

Advertisements
Track Severe Weather on mobile